Time;durP1;ratioP1;P1;durP2;ratioP2;P2;SDS_P1;SDS_P2;PMS_P1;PMS_P2;Temp;Humidity;BMP_temperature;BMP_pressure;BME280_temperature;BME280_humidity;BME280_pressure;Samples;Min_cycle;Max_cycle;Signal;HPM_P1;HPM_P2
2021/10/30 00:01:58;;;;;;;1.40;0.82;;;20.10;39.40;20.40;93348.00;;;;10352215;28;45170;-58
2021/10/30 00:06:59;;;;;;;2.15;0.82;;;20.10;39.40;20.40;93341.00;;;;10350927;28;45229;-59
2021/10/30 00:12:00;;;;;;;1.75;0.80;;;20.10;39.40;20.40;93327.00;;;;10351720;28;45189;-59
2021/10/30 00:17:01;;;;;;;2.05;1.00;;;20.10;39.40;20.40;93336.00;;;;10333605;28;46722;-58
2021/10/30 00:22:02;;;;;;;1.00;0.88;;;20.10;39.40;20.40;93314.00;;;;10296193;28;45931;-59
2021/10/30 00:27:08;;;;;;;1.35;0.80;;;20.00;39.40;20.40;93326.00;;;;10269777;28;47223;-58
2021/10/30 00:32:08;;;;;;;0.57;0.57;;;20.10;39.40;20.40;93310.00;;;;10285267;28;48042;-59
2021/10/30 00:37:09;;;;;;;1.02;0.70;;;20.10;39.40;20.30;93305.00;;;;10270975;28;45845;-59
2021/10/30 00:42:10;;;;;;;0.68;0.68;;;20.00;39.40;20.40;93298.00;;;;10269497;28;46205;-58
2021/10/30 00:47:13;;;;;;;0.70;0.70;;;20.10;39.40;20.40;93296.00;;;;10271613;28;47928;-60
2021/10/30 00:52:15;;;;;;;1.60;1.02;;;20.10;39.40;20.40;93304.00;;;;10349808;28;46521;-59
2021/10/30 00:57:17;;;;;;;0.98;0.80;;;20.10;39.40;20.30;93297.00;;;;10348985;28;46928;-59
2021/10/30 01:02:18;;;;;;;0.93;0.65;;;20.10;39.40;20.30;93300.00;;;;10345304;28;45348;-58
2021/10/30 01:07:19;;;;;;;1.27;0.60;;;20.00;39.40;20.30;93293.00;;;;10349841;28;45628;-58
2021/10/30 01:12:19;;;;;;;0.88;0.60;;;20.00;39.40;20.30;93289.00;;;;10348701;28;45666;-59
2021/10/30 01:17:20;;;;;;;1.63;0.90;;;20.00;39.40;20.30;93288.00;;;;10348901;28;45332;-59
2021/10/30 01:22:23;;;;;;;1.20;0.80;;;20.00;39.40;20.30;93287.00;;;;10317007;28;46139;-58
2021/10/30 01:27:24;;;;;;;0.90;0.70;;;20.00;39.40;20.30;93286.00;;;;10312028;28;45506;-59
2021/10/30 01:32:25;;;;;;;1.13;0.70;;;20.00;39.40;20.30;93278.00;;;;10315306;28;45566;-59
2021/10/30 01:37:25;;;;;;;0.82;0.65;;;20.00;39.40;20.30;93274.00;;;;10315019;28;46267;-58
2021/10/30 01:42:26;;;;;;;1.10;0.80;;;20.00;39.40;20.30;93255.00;;;;10316461;28;45613;-59
2021/10/30 01:47:27;;;;;;;0.70;0.63;;;20.00;39.40;20.30;93247.00;;;;10321614;28;45806;-58
2021/10/30 01:52:28;;;;;;;0.95;0.63;;;20.00;39.40;20.30;93250.00;;;;10357920;28;45577;-60
2021/10/30 01:57:29;;;;;;;1.05;0.60;;;20.00;39.40;20.30;93249.00;;;;10356455;28;46454;-59
2021/10/30 02:02:30;;;;;;;0.88;0.60;;;20.00;39.40;20.30;93245.00;;;;10357535;28;45237;-59
2021/10/30 02:07:30;;;;;;;1.08;0.80;;;20.00;39.40;20.30;93238.00;;;;10356882;28;46703;-58
2021/10/30 02:12:31;;;;;;;1.00;0.70;;;20.00;39.40;20.30;93230.00;;;;10354170;28;46380;-59
2021/10/30 02:17:32;;;;;;;0.80;0.68;;;20.00;39.40;20.30;93223.00;;;;10353957;28;48206;-59
2021/10/30 02:22:33;;;;;;;0.80;0.50;;;20.00;39.40;20.30;93223.00;;;;10295813;28;45704;-60
2021/10/30 02:27:34;;;;;;;0.75;0.60;;;20.00;39.40;20.30;93211.00;;;;10273725;28;45574;-59
2021/10/30 02:32:35;;;;;;;1.60;0.60;;;20.00;39.40;20.30;93189.00;;;;10288801;28;45474;-59
2021/10/30 02:37:36;;;;;;;0.63;0.63;;;20.00;39.40;20.30;93192.00;;;;10287335;28;45360;-60
2021/10/30 02:42:37;;;;;;;1.00;0.70;;;20.00;39.40;20.30;93164.00;;;;10271952;28;47239;-58
2021/10/30 02:47:38;;;;;;;0.88;0.40;;;20.00;39.40;20.30;93168.00;;;;10298938;28;45305;-59
2021/10/30 02:52:40;;;;;;;1.20;0.77;;;20.00;39.40;20.30;93161.00;;;;10353452;28;45211;-59
2021/10/30 02:57:48;;;;;;;0.70;0.57;;;20.00;39.40;20.30;93135.00;;;;10353026;28;45395;-59
2021/10/30 03:02:49;;;;;;;0.65;0.60;;;20.00;39.40;20.20;93129.00;;;;10352707;28;45337;-58
2021/10/30 03:07:50;;;;;;;0.80;0.50;;;20.00;39.40;20.20;93127.00;;;;10353941;28;46311;-58
2021/10/30 03:12:50;;;;;;;0.80;0.60;;;20.00;39.40;20.30;93099.00;;;;10353827;28;45969;-57
2021/10/30 03:17:51;;;;;;;0.75;0.60;;;20.00;39.40;20.30;93099.00;;;;10352009;28;46500;-57
2021/10/30 03:22:52;;;;;;;1.05;0.75;;;20.00;39.40;20.20;93098.00;;;;10316115;28;46151;-60
2021/10/30 03:27:53;;;;;;;0.80;0.60;;;19.90;39.30;20.20;93094.00;;;;10310980;28;45530;-58
2021/10/30 03:32:54;;;;;;;1.05;0.68;;;19.90;39.30;20.20;93092.00;;;;10310926;28;45129;-59
2021/10/30 03:37:54;;;;;;;0.65;0.57;;;19.90;39.30;20.20;93098.00;;;;10312185;28;45226;-59
2021/10/30 03:42:55;;;;;;;0.90;0.70;;;19.90;39.30;20.20;93099.00;;;;10310892;28;45406;-58
2021/10/30 03:47:56;;;;;;;0.70;0.60;;;19.90;39.30;20.20;93088.00;;;;10317893;28;45416;-60
2021/10/30 03:52:57;;;;;;;0.98;0.52;;;19.90;39.30;20.20;93085.00;;;;10352670;28;46440;-60
2021/10/30 03:57:58;;;;;;;1.10;0.60;;;19.90;39.30;20.30;93077.00;;;;10350931;28;46568;-59
2021/10/30 04:02:58;;;;;;;0.65;0.50;;;19.90;39.30;20.20;93091.00;;;;10350642;28;45234;-59
2021/10/30 04:07:59;;;;;;;0.80;0.60;;;19.90;39.30;20.20;93076.00;;;;10350545;28;48396;-60
2021/10/30 04:13:00;;;;;;;0.73;0.60;;;19.90;39.40;20.40;93077.00;;;;10350079;28;46265;-59
2021/10/30 04:18:01;;;;;;;0.60;0.50;;;20.00;39.50;20.40;93063.00;;;;10350362;28;46230;-60
2021/10/30 04:23:02;;;;;;;1.00;0.60;;;20.00;39.40;20.50;93058.00;;;;10288407;28;46200;-59
2021/10/30 04:28:03;;;;;;;0.77;0.60;;;20.10;39.40;20.60;93050.00;;;;10285486;28;45251;-58
2021/10/30 04:33:05;;;;;;;0.65;0.50;;;20.20;39.30;20.60;93034.00;;;;10270366;28;47176;-60
2021/10/30 04:38:05;;;;;;;0.85;0.52;;;20.20;39.10;20.70;93052.00;;;;10285045;28;46030;-59
2021/10/30 04:43:06;;;;;;;0.50;0.50;;;20.30;39.10;20.70;93050.00;;;;10285625;28;45831;-60
2021/10/30 04:48:07;;;;;;;0.60;0.50;;;20.30;39.00;20.70;93031.00;;;;10302892;28;45386;-58
2021/10/30 04:53:08;;;;;;;0.70;0.50;;;20.30;39.00;20.70;93030.00;;;;10349675;28;45130;-58
2021/10/30 04:58:09;;;;;;;0.82;0.43;;;20.40;39.60;20.80;93029.00;;;;10350761;28;45301;-59
2021/10/30 05:03:09;;;;;;;0.77;0.57;;;20.40;38.90;20.90;93033.00;;;;10356188;28;45190;-59
2021/10/30 05:08:10;;;;;;;0.60;0.52;;;20.50;38.80;20.90;93015.00;;;;10356380;28;45259;-58
2021/10/30 05:13:11;;;;;;;0.50;0.50;;;20.50;38.70;20.90;93009.00;;;;10355757;28;45468;-58
2021/10/30 05:18:11;;;;;;;0.95;0.60;;;20.60;38.70;21.00;92997.00;;;;10356051;28;45241;-60
2021/10/30 05:23:12;;;;;;;0.70;0.50;;;20.60;38.70;21.00;92986.00;;;;10292120;28;45190;-58
2021/10/30 05:28:13;;;;;;;0.50;0.40;;;20.60;38.60;21.00;92972.00;;;;10291281;28;46763;-58
2021/10/30 05:33:14;;;;;;;1.50;0.57;;;20.60;38.50;21.00;92962.00;;;;10275689;28;45199;-59
2021/10/30 05:38:17;;;;;;;0.75;0.60;;;20.70;38.50;21.10;92946.00;;;;10275791;28;45635;-59
2021/10/30 05:43:17;;;;;;;0.85;0.60;;;20.70;38.50;21.10;92917.00;;;;10289928;28;45989;-58
2021/10/30 05:48:18;;;;;;;0.52;0.43;;;20.70;38.40;21.10;92936.00;;;;10312435;28;45210;-58
2021/10/30 05:53:19;;;;;;;1.13;0.60;;;20.70;38.30;21.10;92919.00;;;;10354769;28;45271;-60
2021/10/30 05:58:20;;;;;;;0.77;0.50;;;20.80;38.30;21.10;92914.00;;;;10355610;28;46780;-59
2021/10/30 06:03:21;;;;;;;0.90;0.52;;;20.80;38.30;21.20;92908.00;;;;10356000;28;45258;-58
2021/10/30 06:08:21;;;;;;;0.43;0.43;;;20.80;38.20;21.20;92900.00;;;;10355584;28;45326;-60
2021/10/30 06:13:22;;;;;;;0.60;0.60;;;20.80;38.10;21.20;92897.00;;;;10355109;28;45532;-59
2021/10/30 06:18:23;;;;;;;0.82;0.60;;;20.80;38.10;21.20;92887.00;;;;10353583;28;46222;-59
2021/10/30 06:23:24;;;;;;;0.63;0.50;;;20.80;38.10;21.20;92926.00;;;;10315065;28;45532;-58
2021/10/30 06:28:24;;;;;;;1.23;0.70;;;20.90;38.10;21.10;92922.00;;;;10314596;28;45361;-57
2021/10/30 06:33:25;;;;;;;1.88;1.10;;;20.90;35.10;20.80;92896.00;;;;10313343;28;45193;-60
2021/10/30 06:38:26;;;;;;;1.05;0.80;;;20.70;36.70;20.90;92906.00;;;;10314274;28;45287;-58
2021/10/30 06:43:26;;;;;;;2.10;1.23;;;20.70;37.00;20.80;92903.00;;;;10313012;28;45382;-59
2021/10/30 06:48:27;;;;;;;2.38;1.13;;;20.60;36.50;20.80;92895.00;;;;10324111;28;46401;-59
2021/10/30 06:53:27;;;;;;;2.80;0.93;;;20.60;36.30;20.80;92904.00;;;;10353132;28;46214;-59
2021/10/30 06:58:29;;;;;;;1.10;0.90;;;20.50;35.70;20.70;92904.00;;;;10353095;28;45312;-61
2021/10/30 07:03:30;;;;;;;1.90;0.90;;;20.50;35.70;20.70;92908.00;;;;10352954;28;48492;-59
2021/10/30 07:08:31;;;;;;;1.27;0.75;;;20.50;35.50;20.70;92906.00;;;;10354242;28;45314;-59
2021/10/30 07:13:31;;;;;;;1.27;0.80;;;20.50;35.40;20.70;92938.00;;;;10353457;28;46393;-60
2021/10/30 07:18:32;;;;;;;1.63;0.90;;;20.40;35.30;20.70;92916.00;;;;10350774;28;46131;-59
2021/10/30 07:23:33;;;;;;;2.10;1.00;;;20.50;35.30;20.70;92924.00;;;;10310530;28;46395;-60
2021/10/30 07:28:34;;;;;;;2.30;1.02;;;20.50;35.30;20.70;92936.00;;;;10310984;28;47277;-59
2021/10/30 07:33:34;;;;;;;1.88;1.10;;;20.40;35.30;20.70;92922.00;;;;10310889;28;46513;-59
2021/10/30 07:38:36;;;;;;;1.10;0.80;;;20.40;35.40;20.70;92934.00;;;;10311206;28;45638;-59
2021/10/30 07:43:36;;;;;;;1.80;1.10;;;20.40;35.30;20.70;92924.00;;;;10311944;28;45135;-59
2021/10/30 07:48:38;;;;;;;2.38;0.90;;;20.50;35.30;20.70;92925.00;;;;10325333;28;45216;-58
2021/10/30 07:53:38;;;;;;;1.42;1.20;;;20.40;35.30;20.70;92915.00;;;;10351036;28;45623;-59
2021/10/30 07:58:40;;;;;;;2.13;1.30;;;20.40;35.30;20.70;92910.00;;;;10350890;28;45223;-59
2021/10/30 08:03:40;;;;;;;3.28;1.40;;;20.40;35.40;20.70;92906.00;;;;10352269;28;45960;-59
2021/10/30 08:08:41;;;;;;;2.75;1.60;;;20.40;35.30;20.70;92928.00;;;;10334130;28;47277;-59
2021/10/30 08:13:42;;;;;;;2.63;1.80;;;20.40;35.30;20.70;92923.00;;;;10350696;28;46529;-58
2021/10/30 08:18:43;;;;;;;3.33;1.85;;;20.40;35.40;20.70;92911.00;;;;10347574;28;45453;-59
2021/10/30 08:23:44;;;;;;;4.30;2.20;;;20.40;35.40;20.70;92924.00;;;;10309114;28;47293;-60
2021/10/30 08:28:45;;;;;;;3.80;1.80;;;20.40;35.40;20.70;92914.00;;;;10309696;28;45360;-58
2021/10/30 08:33:46;;;;;;;3.90;1.75;;;20.40;35.40;20.70;92925.00;;;;10309454;28;45335;-59
2021/10/30 08:38:47;;;;;;;3.55;1.90;;;20.40;35.40;20.70;92907.00;;;;10308648;28;48498;-59
2021/10/30 08:43:49;;;;;;;3.38;1.92;;;20.40;35.40;20.70;92896.00;;;;10309028;28;46136;-61
2021/10/30 08:48:52;;;;;;;3.75;1.80;;;20.40;35.40;20.70;92897.00;;;;10323848;28;45395;-60
2021/10/30 08:53:53;;;;;;;3.78;1.70;;;20.40;35.40;20.70;92908.00;;;;10350656;28;45230;-60
2021/10/30 08:58:53;;;;;;;2.40;1.60;;;20.40;35.50;20.70;92889.00;;;;10350468;28;46454;-59
2021/10/30 09:04:01;;;;;;;2.97;1.70;;;20.40;35.50;20.70;92910.00;;;;10348889;28;45928;-59
2021/10/30 09:09:17;;;;;;;2.83;1.70;;;20.40;35.50;20.70;92891.00;;;;10332503;28;47012;-59
2021/10/30 09:14:20;;;;;;;2.67;1.70;;;20.40;35.50;20.70;92914.00;;;;10350960;28;45386;-59
2021/10/30 09:19:29;;;;;;;2.83;1.63;;;20.40;35.50;20.70;92913.00;;;;10340186;28;47097;-58
2021/10/30 09:24:30;;;;;;;3.15;1.67;;;20.40;35.60;20.70;92919.00;;;;10308329;28;46416;-58
2021/10/30 09:29:31;;;;;;;3.08;1.65;;;20.40;35.60;20.70;92925.00;;;;10309114;28;45187;-61
2021/10/30 09:34:32;;;;;;;2.50;1.60;;;20.40;35.60;20.70;92911.00;;;;10309266;28;45470;-58
2021/10/30 09:39:32;;;;;;;3.60;1.85;;;20.40;35.60;20.70;92911.00;;;;10308812;28;46444;-59
2021/10/30 09:44:33;;;;;;;3.10;1.98;;;20.40;35.70;20.70;92913.00;;;;10307191;28;45389;-59
2021/10/30 09:49:37;;;;;;;3.67;2.10;;;20.40;35.70;20.70;92921.00;;;;10334422;28;45700;-59
2021/10/30 09:54:39;;;;;;;3.10;2.10;;;20.40;35.80;20.70;92927.00;;;;10356219;28;45316;-59
2021/10/30 09:59:41;;;;;;;3.58;2.30;;;20.40;35.90;20.70;92912.00;;;;10354930;28;47881;-60
2021/10/30 10:04:42;;;;;;;4.03;2.30;;;20.40;36.50;20.70;92898.00;;;;10354286;28;46507;-58
2021/10/30 10:09:45;;;;;;;3.67;2.10;;;20.40;35.90;20.70;92908.00;;;;10355741;28;45256;-58
2021/10/30 10:14:46;;;;;;;3.97;2.60;;;20.40;35.90;20.70;92952.00;;;;10354094;28;45447;-60
2021/10/30 10:19:49;;;;;;;4.22;2.58;;;20.40;36.00;20.70;92972.00;;;;10342234;28;46355;-59
2021/10/30 10:24:50;;;;;;;4.65;2.50;;;20.40;36.10;20.70;92968.00;;;;10313038;28;45572;-59
2021/10/30 10:29:56;;;;;;;3.83;2.30;;;20.40;36.10;20.70;92992.00;;;;10313926;28;45463;-58
2021/10/30 10:35:06;;;;;;;5.13;2.80;;;20.40;36.20;20.70;92964.00;;;;10313547;28;46204;-59
2021/10/30 10:40:28;;;;;;;4.70;2.70;;;20.40;36.20;20.70;92977.00;;;;10312519;28;45405;-59
2021/10/30 10:45:49;;;;;;;4.95;2.80;;;20.40;36.20;20.70;92965.00;;;;10312469;28;47824;-59
2021/10/30 10:50:51;;;;;;;5.30;2.88;;;20.40;36.20;20.70;92946.00;;;;10343108;28;45210;-59
2021/10/30 10:55:51;;;;;;;5.32;3.00;;;20.40;36.20;20.70;92925.00;;;;10353174;28;45267;-60
2021/10/30 11:00:59;;;;;;;5.07;2.90;;;20.40;36.30;20.70;92949.00;;;;10353717;28;46239;-60
2021/10/30 11:06:03;;;;;;;5.07;3.10;;;20.40;36.30;20.70;92930.00;;;;10354070;28;46370;-59
2021/10/30 11:11:24;;;;;;;5.47;3.00;;;20.50;36.30;20.70;92933.00;;;;10353460;28;45312;-59
2021/10/30 11:16:30;;;;;;;4.97;3.08;;;20.40;36.40;20.70;92941.00;;;;10352487;28;46415;-60
2021/10/30 11:21:42;;;;;;;5.00;2.72;;;20.40;36.40;20.70;92937.00;;;;10327940;28;46178;-59
2021/10/30 11:26:44;;;;;;;4.43;2.78;;;20.40;36.40;20.70;92947.00;;;;10312708;28;45266;-59
2021/10/30 11:31:54;;;;;;;5.40;2.85;;;20.40;36.50;20.70;92930.00;;;;10311339;28;45154;-60
2021/10/30 11:36:56;;;;;;;4.32;2.70;;;20.40;36.50;20.70;92932.00;;;;10310741;28;45179;-59
2021/10/30 11:42:03;;;;;;;4.35;2.63;;;20.50;36.60;20.70;92944.00;;;;10310924;28;46347;-58
2021/10/30 11:47:04;;;;;;;;;;;20.50;36.60;20.80;92959.00;;;;10313222;28;46159;-59
2021/10/30 11:52:09;;;;;;;4.13;2.47;;;20.50;36.60;20.80;92961.00;;;;10351435;28;45959;-58
2021/10/30 11:57:11;;;;;;;3.83;2.25;;;20.50;36.70;20.70;92954.00;;;;10351110;28;45487;-60
2021/10/30 12:02:15;;;;;;;3.60;2.50;;;20.50;36.80;20.80;92967.00;;;;10350857;28;45332;-58
2021/10/30 12:07:15;;;;;;;4.60;2.47;;;20.50;36.80;20.80;92968.00;;;;10350882;28;45169;-60
2021/10/30 12:12:19;;;;;;;4.10;2.72;;;20.50;36.80;20.80;92973.00;;;;10349993;28;46142;-58
2021/10/30 12:17:25;;;;;;;4.80;2.70;;;20.50;36.90;20.80;92974.00;;;;10352076;28;45433;-59
2021/10/30 12:22:32;;;;;;;5.00;3.08;;;20.50;36.90;20.80;92974.00;;;;10318515;28;45257;-59
2021/10/30 12:27:37;;;;;;;;;;;20.50;37.00;20.80;92959.00;;;;10309442;28;45601;-60
2021/10/30 12:32:43;;;;;;;5.38;3.60;;;20.50;37.00;20.80;92977.00;;;;10308952;28;48207;-59
2021/10/30 12:37:46;;;;;;;5.87;3.60;;;20.50;37.00;20.80;92957.00;;;;10308897;28;46987;-58
2021/10/30 12:43:02;;;;;;;5.55;3.67;;;20.50;37.10;20.80;92959.00;;;;10310140;28;45487;-58
2021/10/30 12:48:22;;;;;;;4.73;3.43;;;20.50;37.20;20.80;92968.00;;;;10317448;28;46376;-59
2021/10/30 12:53:30;;;;;;;4.88;3.60;;;20.50;37.20;20.80;92991.00;;;;10349734;28;45244;-59
2021/10/30 12:58:45;;;;;;;5.32;3.60;;;20.50;37.30;20.80;92956.00;;;;10349685;28;45336;-59
2021/10/30 13:04:10;;;;;;;5.90;3.83;;;20.50;37.30;20.80;92961.00;;;;10350427;28;45294;-59
2021/10/30 13:09:17;;;;;;;5.45;3.60;;;20.50;37.40;20.80;92954.00;;;;10348417;28;46101;-60
2021/10/30 13:14:18;;;;;;;5.75;3.63;;;20.50;37.40;20.70;92963.00;;;;10350703;28;45224;-59
2021/10/30 13:19:19;;;;;;;5.07;3.40;;;20.50;37.60;20.80;92981.00;;;;10341632;28;45265;-59
2021/10/30 13:24:21;;;;;;;5.68;3.22;;;20.50;37.70;20.80;92981.00;;;;10315387;28;46158;-59
2021/10/30 13:29:22;;;;;;;5.15;3.22;;;20.50;37.90;20.80;92960.00;;;;10315238;28;48201;-59
2021/10/30 13:34:23;;;;;;;4.88;3.03;;;20.50;37.80;20.80;92967.00;;;;10315557;28;45577;-59
2021/10/30 13:39:24;;;;;;;4.85;3.15;;;20.50;37.90;20.80;92940.00;;;;10316185;28;45212;-60
2021/10/30 13:44:25;;;;;;;4.35;2.90;;;20.50;37.90;20.80;92963.00;;;;10316238;28;45333;-59
2021/10/30 13:49:26;;;;;;;4.50;2.97;;;20.50;37.90;20.80;92950.00;;;;10314953;28;45125;-59
2021/10/30 13:54:26;;;;;;;3.80;2.70;;;20.50;37.90;20.80;92979.00;;;;10314802;28;45430;-59
2021/10/30 13:59:27;;;;;;;5.28;3.00;;;20.50;38.00;20.90;92986.00;;;;10314930;28;45311;-62
2021/10/30 14:04:29;;;;;;;5.30;2.50;;;20.60;38.30;21.00;92983.00;;;;10315403;28;45337;-60
2021/10/30 14:09:30;;;;;;;5.00;2.50;;;20.60;38.70;21.10;93010.00;;;;10311580;28;47008;-63
2021/10/30 14:14:31;;;;;;;3.83;2.53;;;20.70;39.10;21.20;93005.00;;;;10310675;28;46953;-63
2021/10/30 14:19:31;;;;;;;5.00;2.50;;;20.80;39.20;21.30;93015.00;;;;10314234;28;47929;-62
2021/10/30 14:24:32;;;;;;;3.35;2.25;;;20.80;39.10;21.30;93026.00;;;;10297340;28;47903;-61
2021/10/30 14:29:33;;;;;;;4.78;2.30;;;20.90;39.50;21.40;93010.00;;;;10315328;28;45218;-63
2021/10/30 14:34:34;;;;;;;4.43;2.30;;;20.90;39.60;21.40;93003.00;;;;10315494;28;46159;-62
2021/10/30 14:39:35;;;;;;;4.03;2.50;;;21.00;39.80;21.50;93050.00;;;;10313142;28;46045;-62
2021/10/30 14:44:35;;;;;;;3.30;2.20;;;21.10;39.80;21.50;93018.00;;;;10316035;28;47335;-62
2021/10/30 14:49:36;;;;;;;5.38;2.10;;;21.10;39.80;21.50;93017.00;;;;10337163;28;47182;-59
2021/10/30 14:54:37;;;;;;;3.95;2.10;;;21.10;39.70;21.30;93045.00;;;;10300667;28;47067;-62
2021/10/30 14:59:40;;;;;;;2.97;2.20;;;21.10;39.20;21.20;93047.00;;;;10317541;28;45572;-62
2021/10/30 15:04:40;;;;;;;6.45;2.20;;;21.00;39.00;21.20;93053.00;;;;10314520;28;47578;-61
2021/10/30 15:09:41;;;;;;;2.90;2.00;;;21.00;39.00;21.20;93043.00;;;;10314619;28;46016;-62
2021/10/30 15:14:42;;;;;;;3.70;2.20;;;20.90;39.00;21.20;93058.00;;;;10304975;28;46175;-65
2021/10/30 15:19:43;;;;;;;5.13;2.22;;;20.90;39.00;21.20;93045.00;;;;10312730;28;45635;-74
2021/10/30 15:24:45;;;;;;;3.97;2.03;;;21.00;39.10;21.20;93065.00;;;;10309324;28;48104;-63
2021/10/30 15:29:47;;;;;;;2.85;1.98;;;20.90;39.00;21.20;93056.00;;;;10308409;28;46920;-61
2021/10/30 15:34:52;;;;;;;3.28;2.03;;;20.90;39.00;21.20;93066.00;;;;10288211;28;45291;-61
2021/10/30 15:39:56;;;;;;;2.97;1.80;;;20.90;39.80;21.20;93095.00;;;;10285923;28;45348;-63
2021/10/30 15:44:56;;;;;;;2.92;1.80;;;20.90;39.00;21.20;93070.00;;;;10286540;28;45325;-63
2021/10/30 15:49:59;;;;;;;2.72;1.90;;;20.90;39.00;21.20;93070.00;;;;10318488;28;46954;-61
2021/10/30 15:55:00;;;;;;;2.25;1.75;;;20.90;39.00;21.20;93087.00;;;;10309998;28;47050;-62
2021/10/30 16:00:05;;;;;;;2.30;1.70;;;20.90;39.00;21.20;93060.00;;;;10310516;28;45249;-58
2021/10/30 16:05:06;;;;;;;2.85;2.00;;;20.90;39.00;21.10;93108.00;;;;10305919;28;46345;-59
2021/10/30 16:10:07;;;;;;;4.63;2.30;;;20.90;39.00;21.20;93107.00;;;;10308823;28;47210;-66
2021/10/30 16:15:08;;;;;;;6.53;2.10;;;20.90;39.10;21.20;93124.00;;;;10308487;28;45374;-64
2021/10/30 16:20:10;;;;;;;5.45;2.08;;;20.90;39.20;21.20;93131.00;;;;10304773;28;45532;-61
2021/10/30 16:25:11;;;;;;;4.18;2.40;;;20.90;39.40;21.20;93154.00;;;;10306588;28;47049;-62
2021/10/30 16:30:12;;;;;;;8.68;3.00;;;20.90;39.40;21.20;93159.00;;;;10306670;28;47430;-64
2021/10/30 16:35:13;;;;;;;6.05;2.95;;;20.90;39.30;21.20;93162.00;;;;10307901;28;45295;-64
2021/10/30 16:40:14;;;;;;;6.53;3.50;;;20.90;39.40;21.20;93170.00;;;;10307161;28;45371;-62
2021/10/30 16:45:16;;;;;;;5.80;3.30;;;21.00;39.50;21.20;93155.00;;;;10306824;28;47031;-64
2021/10/30 16:50:18;;;;;;;5.05;3.70;;;20.90;39.40;21.20;93167.00;;;;10303644;28;45363;-65
2021/10/30 16:55:19;;;;;;;6.15;3.75;;;20.90;39.30;21.20;93160.00;;;;10304943;28;48210;-65
2021/10/30 17:00:19;;;;;;;8.80;3.67;;;20.90;39.30;21.20;93153.00;;;;10308711;28;48587;-62
2021/10/30 17:05:20;;;;;;;8.85;3.50;;;20.90;39.30;21.20;93173.00;;;;10307616;28;47033;-63
2021/10/30 17:10:21;;;;;;;7.10;3.42;;;20.90;39.30;21.20;93190.00;;;;10269362;28;1073809;-61
2021/10/30 17:15:22;;;;;;;5.20;3.25;;;20.90;39.10;21.10;93205.00;;;;10310659;28;45468;-61
2021/10/30 17:20:23;;;;;;;6.53;3.58;;;20.90;39.00;21.00;93194.00;;;;10309504;28;45262;-61
2021/10/30 17:25:23;;;;;;;12.90;5.05;;;20.80;39.00;20.90;93196.00;;;;10310336;28;46559;-61
2021/10/30 17:30:25;;;;;;;12.05;5.05;;;20.80;38.40;20.90;93205.00;;;;10309198;28;46232;-62
2021/10/30 17:35:25;;;;;;;9.00;4.35;;;20.80;38.40;21.00;93215.00;;;;10310272;28;45498;-60
2021/10/30 17:40:26;;;;;;;10.45;4.45;;;20.80;38.40;21.00;93237.00;;;;10307455;28;45268;-61
2021/10/30 17:45:27;;;;;;;9.05;4.28;;;20.80;38.50;21.00;93236.00;;;;10310087;28;45929;-61
2021/10/30 17:50:28;;;;;;;8.50;4.15;;;20.80;38.50;21.00;93216.00;;;;10308279;28;45447;-61
2021/10/30 17:55:29;;;;;;;9.52;4.35;;;20.80;38.50;21.10;93228.00;;;;10309992;28;45334;-61
2021/10/30 18:00:30;;;;;;;8.77;3.90;;;20.80;38.60;21.10;93223.00;;;;10309083;28;47094;-61
2021/10/30 18:05:33;;;;;;;8.25;4.22;;;20.80;38.60;21.10;93252.00;;;;10309624;28;45370;-62
2021/10/30 18:10:34;;;;;;;10.45;4.68;;;20.80;38.80;21.20;93231.00;;;;10309216;28;45170;-66
2021/10/30 18:15:39;;;;;;;9.13;3.88;;;20.90;39.40;21.30;93230.00;;;;10311855;28;47470;-63
2021/10/30 18:20:41;;;;;;;8.25;3.92;;;20.90;39.20;21.20;93250.00;;;;10314516;28;45305;-62
2021/10/30 18:25:43;;;;;;;10.43;4.13;;;20.90;39.00;21.20;93272.00;;;;10316118;28;46905;-62
2021/10/30 18:30:44;;;;;;;8.57;3.40;;;20.90;39.00;21.20;93282.00;;;;10314446;28;46278;-61
2021/10/30 18:35:45;;;;;;;6.55;3.22;;;20.90;39.10;21.20;93280.00;;;;10315190;28;46269;-62
2021/10/30 18:40:47;;;;;;;8.15;3.55;;;20.90;39.50;21.20;93286.00;;;;10306020;28;47104;-62
2021/10/30 18:45:48;;;;;;;7.07;3.10;;;20.90;39.50;21.30;93287.00;;;;10314228;28;45326;-60
2021/10/30 18:50:49;;;;;;;9.43;2.80;;;20.90;39.50;21.20;93290.00;;;;10345814;28;46667;-62
2021/10/30 18:55:49;;;;;;;8.13;3.67;;;20.90;39.40;21.20;93295.00;;;;10353312;28;46203;-62
2021/10/30 19:00:50;;;;;;;9.15;3.97;;;20.90;39.50;21.20;93308.00;;;;10353326;28;45261;-62
2021/10/30 19:05:51;;;;;;;8.75;3.80;;;21.00;40.40;21.30;93295.00;;;;10354631;28;45325;-60
2021/10/30 19:10:53;;;;;;;7.90;3.50;;;21.00;39.70;21.30;93310.00;;;;10319345;28;47501;-63
2021/10/30 19:15:54;;;;;;;7.13;3.15;;;21.00;39.60;21.30;93313.00;;;;10312669;28;45500;-68
2021/10/30 19:20:55;;;;;;;7.03;3.30;;;21.00;39.60;21.30;93321.00;;;;10311545;28;46416;-64
2021/10/30 19:25:56;;;;;;;6.90;3.67;;;21.00;40.00;21.30;93318.00;;;;10313843;28;46326;-62
2021/10/30 19:30:58;;;;;;;6.90;3.30;;;21.00;40.00;21.30;93329.00;;;;10313342;28;45526;-63
2021/10/30 19:35:59;;;;;;;6.95;3.08;;;21.00;40.00;21.30;93323.00;;;;10313482;28;45258;-60
2021/10/30 19:40:59;;;;;;;4.65;2.50;;;21.00;39.80;21.30;93345.00;;;;10311599;28;45300;-62
2021/10/30 19:46:00;;;;;;;5.80;2.70;;;21.00;40.10;21.30;93347.00;;;;10311383;28;45383;-62
2021/10/30 19:51:01;;;;;;;7.03;3.05;;;21.00;40.40;21.30;93328.00;;;;10349218;28;45298;-63
2021/10/30 19:56:02;;;;;;;5.82;2.67;;;21.00;40.20;21.30;93359.00;;;;10325910;28;46606;-62
2021/10/30 20:01:03;;;;;;;5.03;2.50;;;21.10;40.10;21.30;93365.00;;;;10316478;28;48287;-64
2021/10/30 20:06:04;;;;;;;4.20;2.20;;;21.00;40.00;21.30;93356.00;;;;10333046;28;45504;-64
2021/10/30 20:11:05;;;;;;;5.88;2.53;;;21.10;40.30;21.30;93345.00;;;;10333661;28;45408;-64
2021/10/30 20:16:09;;;;;;;4.50;2.60;;;21.10;40.20;21.30;93357.00;;;;10311061;28;46975;-65
2021/10/30 20:21:10;;;;;;;4.20;1.98;;;21.00;40.10;21.30;93346.00;;;;10310545;28;47781;-63
2021/10/30 20:26:11;;;;;;;3.55;2.00;;;21.10;40.00;21.30;93342.00;;;;10310538;28;45301;-62
2021/10/30 20:31:11;;;;;;;3.88;2.10;;;21.00;39.90;21.30;93353.00;;;;10324274;28;45195;-60
2021/10/30 20:36:13;;;;;;;2.33;1.70;;;21.00;39.70;21.30;93365.00;;;;10310496;28;46847;-61
2021/10/30 20:41:14;;;;;;;3.05;1.48;;;21.00;39.80;21.20;93367.00;;;;10307578;28;47525;-63
2021/10/30 20:46:15;;;;;;;3.53;1.80;;;20.90;39.80;21.30;93363.00;;;;10285123;28;48352;-62
2021/10/30 20:51:16;;;;;;;4.38;1.83;;;20.90;39.80;21.30;93382.00;;;;10269482;28;47157;-63
2021/10/30 20:56:17;;;;;;;3.38;1.73;;;20.90;39.70;21.30;93390.00;;;;10310920;28;45274;-63
2021/10/30 21:01:18;;;;;;;4.75;1.70;;;20.90;39.60;21.20;93407.00;;;;10321226;28;45291;-67
2021/10/30 21:06:19;;;;;;;4.63;1.80;;;20.90;39.70;21.20;93392.00;;;;10312323;28;48144;-65
2021/10/30 21:11:21;;;;;;;3.40;1.70;;;20.90;39.60;21.20;93403.00;;;;10313150;28;45170;-65
2021/10/30 21:16:22;;;;;;;3.47;1.55;;;20.90;39.70;21.20;93416.00;;;;10328268;28;47839;-61
2021/10/30 21:21:23;;;;;;;3.13;1.50;;;20.90;39.60;21.10;93410.00;;;;10308527;28;45908;-61
2021/10/30 21:26:24;;;;;;;4.03;1.58;;;20.80;39.60;21.10;93419.00;;;;10306708;28;45203;-62
2021/10/30 21:31:25;;;;;;;2.30;1.50;;;20.80;39.50;21.00;93413.00;;;;10305190;28;47359;-62
2021/10/30 21:36:27;;;;;;;2.58;1.40;;;20.80;39.40;21.00;93407.00;;;;10308838;28;47136;-62
2021/10/30 21:41:28;;;;;;;2.60;1.45;;;20.80;39.50;21.00;93418.00;;;;10310340;28;45334;-62
2021/10/30 21:46:29;;;;;;;1.67;1.23;;;20.80;39.40;21.00;93404.00;;;;10299436;28;47912;-62
2021/10/30 21:51:30;;;;;;;3.17;1.45;;;20.70;39.40;21.00;93424.00;;;;10316296;28;47968;-61
2021/10/30 21:56:31;;;;;;;2.28;1.40;;;20.60;39.40;21.00;93424.00;;;;10317385;28;45335;-61
2021/10/30 22:01:32;;;;;;;1.92;1.23;;;20.70;39.40;21.00;93428.00;;;;10342339;28;45427;-61
2021/10/30 22:06:33;;;;;;;2.60;1.30;;;20.60;39.30;20.90;93437.00;;;;10356050;28;45202;-62